createdAt,value
2017-08-06T00:00:14.804Z,1017.87
2017-08-06T00:01:16.974Z,1017.88
2017-08-06T00:02:19.482Z,1017.88
2017-08-06T00:03:21.772Z,1017.84
2017-08-06T00:04:24.194Z,1017.85
2017-08-06T00:05:26.627Z,1017.85
2017-08-06T00:06:28.968Z,1017.90
2017-08-06T00:07:31.206Z,1017.94
2017-08-06T00:08:45.952Z,1017.94
2017-08-06T00:09:48.342Z,1018.00
2017-08-06T00:10:50.691Z,1018.00
2017-08-06T00:11:52.983Z,1018.01
2017-08-06T00:12:55.303Z,1018.05
2017-08-06T00:13:57.577Z,1018.07
2017-08-06T00:14:59.917Z,1018.04
2017-08-06T00:16:02.209Z,1018.02
2017-08-06T00:17:04.647Z,1018.05
2017-08-06T00:18:19.426Z,1017.99
2017-08-06T00:19:21.806Z,1018.02
2017-08-06T00:20:24.314Z,1018.00
2017-08-06T00:21:26.659Z,1018.03
2017-08-06T00:22:28.908Z,1018.03
2017-08-06T00:23:31.181Z,1018.03
2017-08-06T00:24:33.613Z,1018.07
2017-08-06T00:25:36.005Z,1018.15
2017-08-06T00:26:38.305Z,1018.14
2017-08-06T00:27:53.009Z,1018.15
2017-08-06T00:28:55.315Z,1018.15
2017-08-06T00:29:57.711Z,1018.16
2017-08-06T00:31:01.063Z,1018.20
2017-08-06T00:32:03.393Z,1018.18
2017-08-06T00:33:05.765Z,1018.22
2017-08-06T00:34:08.259Z,1018.26
2017-08-06T00:35:10.505Z,1018.28
2017-08-06T00:36:12.891Z,1018.30
2017-08-06T00:37:27.475Z,1018.29
2017-08-06T00:38:29.746Z,1018.32
2017-08-06T00:39:32.091Z,1018.33
2017-08-06T00:40:34.479Z,1018.34
2017-08-06T00:41:36.921Z,1018.34
2017-08-06T00:42:39.005Z,1018.38
2017-08-06T00:43:41.310Z,1018.35
2017-08-06T00:44:43.814Z,1018.35
2017-08-06T00:45:46.227Z,1018.37
2017-08-06T00:47:00.934Z,1018.39
2017-08-06T00:48:03.315Z,1018.40
2017-08-06T00:49:05.682Z,1018.41
2017-08-06T00:50:08.137Z,1018.43
2017-08-06T00:51:10.565Z,1018.45
2017-08-06T00:52:12.811Z,1018.47
2017-08-06T00:53:15.143Z,1018.52
2017-08-06T00:54:17.538Z,1018.59
2017-08-06T00:55:19.891Z,1018.58
2017-08-06T00:56:34.607Z,1018.58
2017-08-06T00:57:37.013Z,1018.59
2017-08-06T00:58:39.443Z,1018.61
2017-08-06T00:59:41.933Z,1018.57
2017-08-06T01:00:44.269Z,1018.58
2017-08-06T01:01:46.673Z,1018.54
2017-08-06T01:02:49.013Z,1018.58
2017-08-06T01:03:51.523Z,1018.55
2017-08-06T01:04:53.851Z,1018.59
2017-08-06T01:06:08.795Z,1018.63
2017-08-06T01:07:11.133Z,1018.67
2017-08-06T01:08:13.584Z,1018.63
2017-08-06T01:09:15.901Z,1018.64
2017-08-06T01:10:18.238Z,1018.68
2017-08-06T01:11:20.295Z,1018.66
2017-08-06T01:12:22.586Z,1018.65
2017-08-06T01:13:24.878Z,1018.65
2017-08-06T01:14:27.200Z,1018.70
2017-08-06T01:15:41.826Z,1018.65
2017-08-06T01:16:44.190Z,1018.64
2017-08-06T01:17:46.566Z,1018.67
2017-08-06T01:18:48.982Z,1018.67
2017-08-06T01:19:51.301Z,1018.66
2017-08-06T01:20:53.688Z,1018.71
2017-08-06T01:21:56.142Z,1018.70
2017-08-06T01:22:58.620Z,1018.71
2017-08-06T01:24:00.733Z,1018.73
2017-08-06T01:25:15.430Z,1018.66
2017-08-06T01:26:17.953Z,1018.72
2017-08-06T01:27:20.411Z,1018.73
2017-08-06T01:28:22.724Z,1018.74
2017-08-06T01:29:25.041Z,1018.71
2017-08-06T01:30:27.373Z,1018.70
2017-08-06T01:31:29.820Z,1018.71
2017-08-06T01:32:32.166Z,1018.74
2017-08-06T01:33:34.521Z,1018.68
2017-08-06T01:34:49.305Z,1018.73
2017-08-06T01:35:51.702Z,1018.78
2017-08-06T01:36:54.105Z,1018.79
2017-08-06T01:37:56.645Z,1018.82
2017-08-06T01:38:58.932Z,1018.88
2017-08-06T01:40:01.293Z,1018.90
2017-08-06T01:41:03.801Z,1018.93
2017-08-06T01:42:06.077Z,1018.90
2017-08-06T01:43:08.633Z,1018.94
2017-08-06T01:44:23.242Z,1018.95
2017-08-06T01:45:25.725Z,1018.95
2017-08-06T01:46:28.121Z,1018.98
2017-08-06T01:47:30.373Z,1018.96
2017-08-06T01:48:32.653Z,1018.93
2017-08-06T01:49:35.049Z,1018.98
2017-08-06T01:50:37.532Z,1018.99
2017-08-06T01:51:39.980Z,1018.99
2017-08-06T01:52:42.604Z,1018.99
2017-08-06T01:54:02.918Z,1019.04
2017-08-06T01:55:05.154Z,1019.04
2017-08-06T01:56:07.416Z,1019.07
2017-08-06T01:57:09.722Z,1019.12
2017-08-06T01:58:12.075Z,1019.12
2017-08-06T01:59:14.562Z,1019.18
2017-08-06T02:00:16.907Z,1019.16
2017-08-06T02:01:19.293Z,1019.17
2017-08-06T02:02:21.764Z,1019.17
2017-08-06T02:03:36.201Z,1019.17
2017-08-06T02:04:38.522Z,1019.17
2017-08-06T02:05:40.807Z,1019.20
2017-08-06T02:06:43.088Z,1019.22
2017-08-06T02:07:45.412Z,1019.26
2017-08-06T02:08:47.749Z,1019.22
2017-08-06T02:09:50.096Z,1019.26
2017-08-06T02:10:52.493Z,1019.27
2017-08-06T02:11:55.012Z,1019.29
2017-08-06T02:13:09.495Z,1019.31
2017-08-06T02:14:12.203Z,1019.29
2017-08-06T02:15:14.542Z,1019.30
2017-08-06T02:16:16.982Z,1019.27
2017-08-06T02:17:19.225Z,1019.29
2017-08-06T02:18:21.569Z,1019.30
2017-08-06T02:19:23.896Z,1019.25
2017-08-06T02:20:26.249Z,1019.27
2017-08-06T02:21:28.621Z,1019.24
2017-08-06T02:22:43.341Z,1019.25
2017-08-06T02:23:45.779Z,1019.24
2017-08-06T02:24:48.080Z,1019.20
2017-08-06T02:25:50.793Z,1019.21
2017-08-06T02:26:53.037Z,1019.26
2017-08-06T02:27:55.327Z,1019.26
2017-08-06T02:28:57.793Z,1019.31
2017-08-06T02:30:00.308Z,1019.27
2017-08-06T02:31:02.656Z,1019.29
2017-08-06T02:32:17.473Z,1019.35
2017-08-06T02:33:19.832Z,1019.31
2017-08-06T02:34:22.197Z,1019.31
2017-08-06T02:35:24.516Z,1019.30
2017-08-06T02:36:26.896Z,1019.27
2017-08-06T02:37:29.358Z,1019.25
2017-08-06T02:38:31.784Z,1019.29
2017-08-06T02:39:34.111Z,1019.31
2017-08-06T02:40:36.557Z,1019.30
2017-08-06T02:41:51.165Z,1019.37
2017-08-06T02:42:53.496Z,1019.35
2017-08-06T02:43:55.992Z,1019.33
2017-08-06T02:44:58.353Z,1019.34
2017-08-06T02:46:00.672Z,1019.38
2017-08-06T02:47:02.967Z,1019.38
2017-08-06T02:48:05.347Z,1019.39
2017-08-06T02:49:07.777Z,1019.37
2017-08-06T02:50:10.154Z,1019.35
2017-08-06T02:51:25.067Z,1019.33
2017-08-06T02:52:27.430Z,1019.35
2017-08-06T02:53:29.772Z,1019.27
2017-08-06T02:54:32.354Z,1019.34
2017-08-06T02:55:34.739Z,1019.38
2017-08-06T02:56:37.063Z,1019.35
2017-08-06T02:57:39.480Z,1019.33
2017-08-06T02:58:41.834Z,1019.33
2017-08-06T02:59:44.241Z,1019.32
2017-08-06T03:00:58.943Z,1019.34
2017-08-06T03:02:01.028Z,1019.35
2017-08-06T03:03:03.561Z,1019.34
2017-08-06T03:04:05.955Z,1019.38
2017-08-06T03:05:08.286Z,1019.39
2017-08-06T03:06:10.597Z,1019.42
2017-08-06T03:07:13.085Z,1019.49
2017-08-06T03:08:15.412Z,1019.47
2017-08-06T03:09:17.794Z,1019.45
2017-08-06T03:10:32.558Z,1019.50
2017-08-06T03:11:34.955Z,1019.49
2017-08-06T03:12:37.292Z,1019.51
2017-08-06T03:13:39.387Z,1019.53
2017-08-06T03:14:41.788Z,1019.52
2017-08-06T03:15:44.138Z,1019.54
2017-08-06T03:16:46.507Z,1019.50
2017-08-06T03:17:48.927Z,1019.54
2017-08-06T03:18:51.448Z,1019.51
2017-08-06T03:20:06.245Z,1019.49
2017-08-06T03:21:08.631Z,1019.46
2017-08-06T03:22:10.741Z,1019.46
2017-08-06T03:23:13.109Z,1019.47
2017-08-06T03:24:15.554Z,1019.43
2017-08-06T03:25:17.660Z,1019.45
2017-08-06T03:26:20.015Z,1019.45
2017-08-06T03:27:22.433Z,1019.43
2017-08-06T03:28:24.806Z,1019.43
2017-08-06T03:29:39.651Z,1019.47
2017-08-06T03:30:42.088Z,1019.46
2017-08-06T03:31:44.749Z,1019.46
2017-08-06T03:32:47.145Z,1019.48
2017-08-06T03:33:49.395Z,1019.51
2017-08-06T03:34:51.878Z,1019.51
2017-08-06T03:35:54.194Z,1019.58
2017-08-06T03:36:56.573Z,1019.56
2017-08-06T03:37:58.977Z,1019.57
2017-08-06T03:39:13.687Z,1019.58
2017-08-06T03:40:16.156Z,1019.61
2017-08-06T03:41:18.649Z,1019.62
2017-08-06T03:42:21.015Z,1019.64
2017-08-06T03:43:23.329Z,1019.64
2017-08-06T03:44:25.635Z,1019.67
2017-08-06T03:45:28.023Z,1019.66
2017-08-06T03:46:30.410Z,1019.67
2017-08-06T03:47:33.077Z,1019.69
2017-08-06T03:48:47.713Z,1019.70
2017-08-06T03:49:50.294Z,1019.75
2017-08-06T03:50:52.852Z,1019.74
2017-08-06T03:51:55.268Z,1019.73
2017-08-06T03:52:57.522Z,1019.77
2017-08-06T03:53:59.905Z,1019.78
2017-08-06T03:55:02.383Z,1019.78
2017-08-06T03:56:04.750Z,1019.83
2017-08-06T03:57:07.168Z,1019.88
2017-08-06T03:58:21.939Z,1019.90
2017-08-06T03:59:24.055Z,1019.93
2017-08-06T04:00:26.464Z,1019.98
2017-08-06T04:01:28.843Z,1020.00
2017-08-06T04:02:31.186Z,1019.95
2017-08-06T04:03:33.546Z,1019.95
2017-08-06T04:04:35.887Z,1019.99
2017-08-06T04:05:38.268Z,1020.03
2017-08-06T04:06:40.659Z,1020.05
2017-08-06T04:07:55.411Z,1020.07
2017-08-06T04:08:57.767Z,1020.06
2017-08-06T04:10:00.147Z,1020.07
2017-08-06T04:11:02.782Z,1020.09
2017-08-06T04:12:05.088Z,1020.12
2017-08-06T04:13:07.452Z,1020.15
2017-08-06T04:14:09.858Z,1020.20
2017-08-06T04:15:12.244Z,1020.19
2017-08-06T04:16:14.497Z,1020.16
2017-08-06T04:17:29.171Z,1020.17
2017-08-06T04:18:31.284Z,1020.20
2017-08-06T04:19:33.677Z,1020.22
2017-08-06T04:20:36.027Z,1020.29
2017-08-06T04:21:38.401Z,1020.34
2017-08-06T04:22:40.761Z,1020.26
2017-08-06T04:23:43.158Z,1020.26
2017-08-06T04:24:45.530Z,1020.22
2017-08-06T04:25:47.934Z,1020.21
2017-08-06T04:27:02.741Z,1020.25
2017-08-06T04:28:05.129Z,1020.23
2017-08-06T04:29:07.474Z,1020.26
2017-08-06T04:30:09.861Z,1020.28
2017-08-06T04:31:12.181Z,1020.26
2017-08-06T04:32:14.536Z,1020.29
2017-08-06T04:33:16.911Z,1020.29
2017-08-06T04:34:19.271Z,1020.31
2017-08-06T04:35:21.677Z,1020.32
2017-08-06T04:36:36.552Z,1020.37
2017-08-06T04:37:38.987Z,1020.40
2017-08-06T04:38:41.461Z,1020.43
2017-08-06T04:39:43.858Z,1020.41
2017-08-06T04:40:46.282Z,1020.42
2017-08-06T04:41:48.558Z,1020.50
2017-08-06T04:42:50.923Z,1020.50
2017-08-06T04:43:53.288Z,1020.51
2017-08-06T04:44:55.667Z,1020.55
2017-08-06T04:46:10.393Z,1020.58
2017-08-06T04:47:12.779Z,1020.67
2017-08-06T04:48:15.249Z,1020.67
2017-08-06T04:49:17.567Z,1020.72
2017-08-06T04:50:19.908Z,1020.76
2017-08-06T04:51:22.250Z,1020.78
2017-08-06T04:52:24.651Z,1020.82
2017-08-06T04:53:27.106Z,1020.81
2017-08-06T04:54:29.485Z,1020.79
2017-08-06T04:55:44.183Z,1020.84
2017-08-06T04:56:46.637Z,1020.95
2017-08-06T04:57:48.722Z,1020.94
2017-08-06T04:58:51.297Z,1020.94
2017-08-06T04:59:53.697Z,1020.92
2017-08-06T05:00:55.988Z,1020.92
2017-08-06T05:01:58.401Z,1020.94
2017-08-06T05:03:00.753Z,1020.96
2017-08-06T05:04:03.204Z,1021.05
2017-08-06T05:05:17.843Z,1021.09
2017-08-06T05:06:20.214Z,1021.15
2017-08-06T05:07:22.341Z,1021.17
2017-08-06T05:08:24.750Z,1021.15
2017-08-06T05:09:27.129Z,1021.27
2017-08-06T05:10:29.179Z,1021.23
2017-08-06T05:11:31.520Z,1021.27
2017-08-06T05:12:33.947Z,1021.24
2017-08-06T05:13:36.300Z,1021.24
2017-08-06T05:14:51.099Z,1021.30
2017-08-06T05:15:53.457Z,1021.35
2017-08-06T05:16:55.568Z,1021.31
2017-08-06T05:17:57.994Z,1021.42
2017-08-06T05:19:00.271Z,1021.53
2017-08-06T05:20:02.753Z,1021.49
2017-08-06T05:21:05.398Z,1021.53
2017-08-06T05:22:07.749Z,1021.47
2017-08-06T05:23:10.176Z,1021.45
2017-08-06T05:24:24.916Z,1021.48
2017-08-06T05:25:27.352Z,1021.44
2017-08-06T05:26:29.696Z,1021.43
2017-08-06T05:27:32.162Z,1021.39
2017-08-06T05:28:34.485Z,1021.50
2017-08-06T05:29:36.852Z,1021.43
2017-08-06T05:30:39.364Z,1021.40
2017-08-06T05:31:41.757Z,1021.40
2017-08-06T05:32:44.175Z,1021.42
2017-08-06T05:33:58.890Z,1021.33
2017-08-06T05:35:01.284Z,1021.35
2017-08-06T05:36:03.675Z,1021.40
2017-08-06T05:37:06.081Z,1021.36
2017-08-06T05:38:08.445Z,1021.42
2017-08-06T05:39:10.911Z,1021.41
2017-08-06T05:40:13.377Z,1021.41
2017-08-06T05:41:15.730Z,1021.58
2017-08-06T05:42:18.168Z,1021.53
2017-08-06T05:43:32.809Z,1021.51
2017-08-06T05:44:35.249Z,1021.46
2017-08-06T05:45:37.577Z,1021.51
2017-08-06T05:46:39.941Z,1021.51
2017-08-06T05:47:42.204Z,1021.55
2017-08-06T05:48:44.525Z,1021.56
2017-08-06T05:49:46.904Z,1021.52
2017-08-06T05:50:49.523Z,1021.56
2017-08-06T05:51:51.941Z,1021.56
2017-08-06T05:53:06.787Z,1021.60
2017-08-06T05:54:09.137Z,1021.64
2017-08-06T05:55:11.686Z,1021.56
2017-08-06T05:56:14.127Z,1021.54
2017-08-06T05:57:16.425Z,1021.62
2017-08-06T05:58:18.467Z,1021.64
2017-08-06T05:59:20.930Z,1021.69
2017-08-06T06:00:23.307Z,1021.67
2017-08-06T06:01:25.765Z,1021.76
2017-08-06T06:02:40.561Z,1021.71
2017-08-06T06:03:42.946Z,1021.77
2017-08-06T06:04:45.259Z,1021.78
2017-08-06T06:05:47.615Z,1021.80
2017-08-06T06:06:50.086Z,1021.88
2017-08-06T06:07:52.389Z,1021.91
2017-08-06T06:08:54.785Z,1021.88
2017-08-06T06:09:57.133Z,1021.89
2017-08-06T06:10:59.532Z,1021.89
2017-08-06T06:12:14.970Z,1021.98
2017-08-06T06:13:17.347Z,1022.02
2017-08-06T06:14:19.782Z,1022.02
2017-08-06T06:15:22.255Z,1021.95
2017-08-06T06:16:24.853Z,1021.94
2017-08-06T06:17:26.901Z,1022.02
2017-08-06T06:18:29.459Z,1022.02
2017-08-06T06:19:31.859Z,1021.89
2017-08-06T06:20:34.204Z,1021.95
2017-08-06T06:21:48.989Z,1021.98
2017-08-06T06:22:51.344Z,1021.93
2017-08-06T06:23:53.735Z,1021.93
2017-08-06T06:24:56.137Z,1021.92
2017-08-06T06:25:58.584Z,1021.85
2017-08-06T06:27:00.865Z,1021.85
2017-08-06T06:28:03.218Z,1021.93
2017-08-06T06:29:05.714Z,1021.91
2017-08-06T06:30:08.069Z,1021.98
2017-08-06T06:31:22.767Z,1022.01
2017-08-06T06:32:25.349Z,1022.14
2017-08-06T06:33:27.767Z,1022.10
2017-08-06T06:34:30.082Z,1022.14
2017-08-06T06:35:32.373Z,1022.18
2017-08-06T06:36:34.424Z,1022.22
2017-08-06T06:37:36.831Z,1022.22
2017-08-06T06:38:38.964Z,1022.25
2017-08-06T06:39:41.420Z,1022.29
2017-08-06T06:40:56.157Z,1022.24
2017-08-06T06:41:58.671Z,1022.29
2017-08-06T06:43:01.174Z,1022.23
2017-08-06T06:44:03.564Z,1022.15
2017-08-06T06:45:05.942Z,1022.31
2017-08-06T06:46:08.296Z,1022.28
2017-08-06T06:47:10.702Z,1022.34
2017-08-06T06:48:13.157Z,1022.40
2017-08-06T06:49:15.589Z,1022.35
2017-08-06T06:50:30.269Z,1022.27
2017-08-06T06:51:32.632Z,1022.27
2017-08-06T06:52:35.012Z,1022.23
2017-08-06T06:53:37.616Z,1022.29
2017-08-06T06:54:39.907Z,1022.47
2017-08-06T06:55:42.231Z,1022.50
2017-08-06T06:56:44.594Z,1022.43
2017-08-06T06:57:47.045Z,1022.42
2017-08-06T06:58:49.392Z,1022.51
2017-08-06T07:00:04.054Z,1022.67
2017-08-06T07:01:06.443Z,1022.62
2017-08-06T07:02:08.545Z,1022.60
2017-08-06T07:03:10.977Z,1022.68
2017-08-06T07:04:13.312Z,1022.67
2017-08-06T07:05:15.223Z,1022.69
2017-08-06T07:06:17.052Z,1022.60
2017-08-06T07:07:18.880Z,1022.57
2017-08-06T07:08:20.710Z,1022.63
2017-08-06T07:09:34.877Z,1022.58
2017-08-06T07:10:36.768Z,1022.58
2017-08-06T07:11:38.658Z,1022.55
2017-08-06T07:12:40.552Z,1022.59
2017-08-06T07:13:42.383Z,1022.57
2017-08-06T07:14:44.214Z,1022.58
2017-08-06T07:15:46.105Z,1022.50
2017-08-06T07:16:48.005Z,1022.48
2017-08-06T07:17:49.902Z,1022.54
2017-08-06T07:19:04.066Z,1022.48
2017-08-06T07:20:05.967Z,1022.46
2017-08-06T07:21:07.850Z,1022.56
2017-08-06T07:22:09.745Z,1022.55
2017-08-06T07:23:11.575Z,1022.56
2017-08-06T07:24:13.408Z,1022.60
2017-08-06T07:25:15.302Z,1022.69
2017-08-06T07:26:17.192Z,1022.72
2017-08-06T07:27:19.087Z,1022.80
2017-08-06T07:28:33.256Z,1022.78
2017-08-06T07:29:35.153Z,1022.81
2017-08-06T07:30:37.042Z,1022.84
2017-08-06T07:31:38.935Z,1022.92
2017-08-06T07:32:40.770Z,1022.99
2017-08-06T07:33:42.602Z,1023.02
2017-08-06T07:34:44.494Z,1023.13
2017-08-06T07:35:46.408Z,1023.10
2017-08-06T07:36:48.277Z,1023.06
2017-08-06T07:38:02.446Z,1023.00
2017-08-06T07:39:04.336Z,1023.18
2017-08-06T07:40:06.227Z,1023.14
2017-08-06T07:41:08.120Z,1023.16
2017-08-06T07:42:09.954Z,1023.16
2017-08-06T07:43:11.805Z,1022.99
2017-08-06T07:44:13.701Z,1022.93
2017-08-06T07:45:15.585Z,1022.97
2017-08-06T07:46:17.476Z,1023.07
2017-08-06T07:47:31.768Z,1023.10
2017-08-06T07:48:33.655Z,1023.06
2017-08-06T07:49:35.556Z,1023.21
2017-08-06T07:50:37.452Z,1023.15
2017-08-06T07:51:39.289Z,1023.11
2017-08-06T07:52:41.120Z,1023.21
2017-08-06T07:53:43.010Z,1023.07
2017-08-06T07:54:44.900Z,1023.09
2017-08-06T07:55:46.790Z,1023.08
2017-08-06T07:57:00.970Z,1023.31
2017-08-06T07:58:02.864Z,1023.23
2017-08-06T07:59:04.755Z,1023.35
2017-08-06T08:00:06.651Z,1023.39
2017-08-06T08:01:08.485Z,1023.27
2017-08-06T08:02:10.321Z,1023.30
2017-08-06T08:03:12.209Z,1023.25
2017-08-06T08:04:14.101Z,1023.31
2017-08-06T08:05:15.989Z,1023.34
2017-08-06T08:06:30.162Z,1023.46
2017-08-06T08:07:32.051Z,1023.39
2017-08-06T08:08:33.942Z,1023.34
2017-08-06T08:09:35.833Z,1023.27
2017-08-06T08:10:37.666Z,1023.34
2017-08-06T08:11:39.504Z,1023.41
2017-08-06T08:12:41.391Z,1023.35
2017-08-06T08:13:43.282Z,1023.46
2017-08-06T08:14:45.176Z,1023.43
2017-08-06T08:15:59.345Z,1023.54
2017-08-06T08:17:01.241Z,1023.53
2017-08-06T08:18:03.130Z,1023.59
2017-08-06T08:19:05.026Z,1023.54
2017-08-06T08:20:06.861Z,1023.54
2017-08-06T08:21:08.692Z,1023.55
2017-08-06T08:22:10.588Z,1023.52
2017-08-06T08:23:12.480Z,1023.56
2017-08-06T08:24:14.368Z,1023.52
2017-08-06T08:25:28.539Z,1023.56
2017-08-06T08:26:30.427Z,1023.43
2017-08-06T08:27:32.325Z,1023.47
2017-08-06T08:28:34.213Z,1023.59
2017-08-06T08:29:36.051Z,1023.62
2017-08-06T08:30:37.884Z,1023.62
2017-08-06T08:31:39.779Z,1023.59
2017-08-06T08:32:41.676Z,1023.59
2017-08-06T08:33:43.573Z,1023.60
2017-08-06T08:34:57.743Z,1023.63
2017-08-06T08:35:59.632Z,1023.72
2017-08-06T08:37:01.525Z,1023.81
2017-08-06T08:38:03.421Z,1023.83
2017-08-06T08:39:05.257Z,1023.85
2017-08-06T08:40:07.089Z,1023.94
2017-08-06T08:41:08.983Z,1023.89
2017-08-06T08:42:10.889Z,1023.99
2017-08-06T08:43:12.782Z,1024.01
2017-08-06T08:44:26.951Z,1023.91
2017-08-06T08:45:28.844Z,1023.97
2017-08-06T08:46:30.735Z,1023.94
2017-08-06T08:47:32.628Z,1023.99
2017-08-06T08:48:34.466Z,1023.99
2017-08-06T08:49:36.298Z,1024.06
2017-08-06T08:50:38.153Z,1024.07
2017-08-06T08:51:39.984Z,1024.05
2017-08-06T08:52:41.815Z,1024.05
2017-08-06T08:53:56.022Z,1024.00
2017-08-06T08:54:57.913Z,1023.90
2017-08-06T08:55:59.807Z,1023.90
2017-08-06T08:57:01.702Z,1023.95
2017-08-06T08:58:03.546Z,1024.09
2017-08-06T08:59:05.374Z,1024.19
2017-08-06T09:00:07.263Z,1023.99
2017-08-06T09:01:09.154Z,1023.91
2017-08-06T09:02:11.045Z,1023.93
2017-08-06T09:03:25.216Z,1023.90
2017-08-06T09:04:27.109Z,1023.96
2017-08-06T09:05:29.017Z,1023.97
2017-08-06T09:06:30.904Z,1024.04
2017-08-06T09:07:32.740Z,1024.07
2017-08-06T09:08:34.585Z,1024.10
2017-08-06T09:09:36.468Z,1024.01
2017-08-06T09:10:38.366Z,1024.13
2017-08-06T09:11:40.255Z,1024.13
2017-08-06T09:12:54.436Z,1024.07
2017-08-06T09:13:56.328Z,1024.08
2017-08-06T09:14:58.221Z,1024.10
2017-08-06T09:16:00.115Z,1024.00
2017-08-06T09:17:01.951Z,1024.02
2017-08-06T09:18:03.786Z,1024.06
2017-08-06T09:19:05.682Z,1024.24
2017-08-06T09:20:07.576Z,1024.14
2017-08-06T09:21:09.467Z,1024.09
2017-08-06T09:22:23.639Z,1024.13
2017-08-06T09:23:25.530Z,1024.05
2017-08-06T09:24:27.426Z,1024.12
2017-08-06T09:25:29.329Z,1024.16
2017-08-06T09:26:31.161Z,1024.22
2017-08-06T09:27:32.995Z,1024.10
2017-08-06T09:28:34.891Z,1023.98
2017-08-06T09:29:36.780Z,1023.89
2017-08-06T09:30:38.671Z,1023.88
2017-08-06T09:31:52.839Z,1023.72
2017-08-06T09:32:54.730Z,1023.72
2017-08-06T09:33:56.630Z,1023.74
2017-08-06T09:34:58.520Z,1023.79
2017-08-06T09:36:00.357Z,1023.81
2017-08-06T09:37:02.189Z,1023.80
2017-08-06T09:38:04.086Z,1023.84
2017-08-06T09:39:05.980Z,1023.86
2017-08-06T09:40:07.876Z,1023.97
2017-08-06T09:41:22.041Z,1023.96
2017-08-06T09:42:23.938Z,1023.92
2017-08-06T09:43:25.829Z,1024.00
2017-08-06T09:44:27.729Z,1024.03
2017-08-06T09:45:29.564Z,1023.96
2017-08-06T09:46:31.398Z,1023.86
2017-08-06T09:47:33.294Z,1023.81
2017-08-06T09:48:35.192Z,1023.80
2017-08-06T09:49:37.075Z,1023.73
2017-08-06T09:50:51.247Z,1023.81
2017-08-06T09:51:53.139Z,1023.73
2017-08-06T09:52:55.033Z,1023.72
2017-08-06T09:53:56.930Z,1023.73
2017-08-06T09:54:58.767Z,1023.69
2017-08-06T09:56:00.605Z,1023.71
2017-08-06T09:57:02.495Z,1023.77
2017-08-06T09:58:04.386Z,1023.75
2017-08-06T09:59:06.282Z,1023.75
2017-08-06T10:00:20.456Z,1023.75
2017-08-06T10:01:22.352Z,1023.76
2017-08-06T10:02:24.250Z,1023.76
2017-08-06T10:03:26.139Z,1023.72
2017-08-06T10:04:27.978Z,1023.71
2017-08-06T10:05:29.810Z,1023.58
2017-08-06T10:06:31.702Z,1023.62
2017-08-06T10:07:33.592Z,1023.54
2017-08-06T10:08:35.483Z,1023.59
2017-08-06T10:09:49.655Z,1023.61
2017-08-06T10:10:51.543Z,1023.68
2017-08-06T10:11:53.436Z,1023.55
2017-08-06T10:12:55.337Z,1023.65
2017-08-06T10:13:57.164Z,1023.65
2017-08-06T10:14:58.999Z,1023.66
2017-08-06T10:16:00.903Z,1023.56
2017-08-06T10:17:02.788Z,1023.54
2017-08-06T10:18:04.700Z,1023.54
2017-08-06T10:19:18.886Z,1023.55
2017-08-06T10:20:20.787Z,1023.63
2017-08-06T10:21:22.666Z,1023.57
2017-08-06T10:22:24.583Z,1023.53
2017-08-06T10:23:26.399Z,1023.54
2017-08-06T10:24:28.230Z,1023.65
2017-08-06T10:25:30.128Z,1023.67
2017-08-06T10:26:32.015Z,1023.77
2017-08-06T10:27:33.913Z,1023.91
2017-08-06T10:28:48.085Z,1023.98
2017-08-06T10:29:49.975Z,1023.95
2017-08-06T10:30:51.869Z,1023.97
2017-08-06T10:31:53.764Z,1023.94
2017-08-06T10:32:55.612Z,1023.99
2017-08-06T10:33:57.438Z,1024.01
2017-08-06T10:34:59.333Z,1024.02
2017-08-06T10:36:01.237Z,1024.13
2017-08-06T10:37:03.127Z,1024.08
2017-08-06T10:38:17.299Z,1023.88
2017-08-06T10:39:19.190Z,1023.73
2017-08-06T10:40:21.088Z,1023.73
2017-08-06T10:41:22.982Z,1023.61
2017-08-06T10:42:24.820Z,1023.60
2017-08-06T10:43:26.654Z,1023.72
2017-08-06T10:44:28.547Z,1023.77
2017-08-06T10:45:30.438Z,1023.79
2017-08-06T10:46:32.338Z,1023.88
2017-08-06T10:47:46.509Z,1023.97
2017-08-06T10:48:48.399Z,1024.06
2017-08-06T10:49:50.297Z,1024.06
2017-08-06T10:50:52.198Z,1024.09
2017-08-06T10:51:54.036Z,1024.13
2017-08-06T10:52:55.873Z,1023.93
2017-08-06T10:53:57.763Z,1024.04
2017-08-06T10:54:59.660Z,1024.02
2017-08-06T10:56:01.554Z,1024.07
2017-08-06T10:57:15.727Z,1023.97
2017-08-06T10:58:17.617Z,1023.96
2017-08-06T10:59:19.515Z,1023.99
2017-08-06T11:00:21.410Z,1023.75
2017-08-06T11:01:23.257Z,1023.73
2017-08-06T11:02:25.083Z,1023.70
2017-08-06T11:03:26.984Z,1023.63
2017-08-06T11:04:28.873Z,1023.63
2017-08-06T11:05:30.766Z,1023.70
2017-08-06T11:06:44.957Z,1023.79
2017-08-06T11:07:46.840Z,1023.74
2017-08-06T11:08:48.740Z,1023.92
2017-08-06T11:09:50.637Z,1023.87
2017-08-06T11:10:52.471Z,1023.84
2017-08-06T11:11:54.305Z,1023.89
2017-08-06T11:12:56.202Z,1023.91
2017-08-06T11:13:58.096Z,1024.01
2017-08-06T11:14:59.991Z,1024.04
2017-08-06T11:16:14.168Z,1023.94
2017-08-06T11:17:16.062Z,1023.98
2017-08-06T11:18:17.956Z,1023.81
2017-08-06T11:19:19.852Z,1023.81
2017-08-06T11:20:21.690Z,1023.74
2017-08-06T11:21:23.522Z,1023.81
2017-08-06T11:22:25.416Z,1023.87
2017-08-06T11:23:27.328Z,1024.04
2017-08-06T11:24:29.239Z,1024.07
2017-08-06T11:25:43.398Z,1024.15
2017-08-06T11:26:45.441Z,1024.09
2017-08-06T11:27:47.346Z,1023.94
2017-08-06T11:28:49.257Z,1023.96
2017-08-06T11:29:51.095Z,1023.95
2017-08-06T11:30:52.944Z,1023.87
2017-08-06T11:31:54.830Z,1023.98
2017-08-06T11:32:57.123Z,1023.99
2017-08-06T11:33:59.081Z,1024.00
2017-08-06T11:35:13.409Z,1024.08
2017-08-06T11:36:15.299Z,1024.08
2017-08-06T11:37:17.210Z,1024.11
2017-08-06T11:38:19.099Z,1024.08
2017-08-06T11:39:20.933Z,1024.38
2017-08-06T11:40:22.767Z,1024.06
2017-08-06T11:41:24.698Z,1023.97
2017-08-06T11:42:26.605Z,1023.88
2017-08-06T11:43:28.541Z,1023.82
2017-08-06T11:44:42.726Z,1023.93
2017-08-06T11:45:44.619Z,1023.84
2017-08-06T11:46:46.511Z,1023.78
2017-08-06T11:47:48.786Z,1023.64
2017-08-06T11:48:50.683Z,1023.59
2017-08-06T11:49:52.499Z,1023.57
2017-08-06T11:50:54.394Z,1023.60
2017-08-06T11:51:56.285Z,1023.67
2017-08-06T11:52:58.180Z,1023.60
2017-08-06T11:54:12.533Z,1023.60
2017-08-06T11:55:15.209Z,1023.58
2017-08-06T11:56:17.695Z,1023.60
2017-08-06T11:57:20.124Z,1023.61
2017-08-06T11:58:22.460Z,1023.56
2017-08-06T11:59:24.754Z,1023.73
2017-08-06T12:00:27.042Z,1023.59
2017-08-06T12:01:28.916Z,1023.51
2017-08-06T12:02:30.840Z,1023.70
2017-08-06T12:03:45.374Z,1023.69
2017-08-06T12:04:47.287Z,1023.67
2017-08-06T12:05:49.600Z,1023.67
2017-08-06T12:06:51.473Z,1023.75
2017-08-06T12:07:53.314Z,1023.75
2017-08-06T12:08:55.144Z,1023.69
2017-08-06T12:09:57.099Z,1023.69
2017-08-06T12:10:59.347Z,1023.62
2017-08-06T12:12:01.337Z,1023.62
2017-08-06T12:13:15.604Z,1023.66
2017-08-06T12:14:17.601Z,1023.68
2017-08-06T12:15:19.492Z,1023.74
2017-08-06T12:16:22.066Z,1023.77
2017-08-06T12:17:24.412Z,1023.73
2017-08-06T12:18:26.537Z,1023.78
2017-08-06T12:19:28.919Z,1023.66
2017-08-06T12:20:31.372Z,1023.66
2017-08-06T12:21:34.154Z,1023.63
2017-08-06T12:22:48.796Z,1023.77
2017-08-06T12:23:51.205Z,1023.78
2017-08-06T12:24:53.631Z,1023.78
2017-08-06T12:25:56.160Z,1023.84
2017-08-06T12:26:58.499Z,1023.80
2017-08-06T12:28:00.798Z,1023.84
2017-08-06T12:29:03.313Z,1023.91
2017-08-06T12:30:05.805Z,1023.90
2017-08-06T12:31:08.213Z,1023.96
2017-08-06T12:32:22.468Z,1024.12
2017-08-06T12:33:24.819Z,1024.18
2017-08-06T12:34:27.181Z,1024.23
2017-08-06T12:35:29.587Z,1024.17
2017-08-06T12:36:31.644Z,1024.01
2017-08-06T12:37:34.002Z,1024.00
2017-08-06T12:38:36.333Z,1023.97
2017-08-06T12:39:38.295Z,1024.00
2017-08-06T12:40:40.605Z,1023.98
2017-08-06T12:41:55.070Z,1024.03
2017-08-06T12:42:57.461Z,1024.09
2017-08-06T12:43:59.881Z,1024.22
2017-08-06T12:45:02.272Z,1024.31
2017-08-06T12:46:04.640Z,1024.32
2017-08-06T12:47:07.033Z,1024.31
2017-08-06T12:48:09.386Z,1024.42